Terminal Aerodrome Forecast
Issued by NWS

Current Version | Previous Version | Text Only | Print | Product List | Glossary On
Versions: 1 2 3 4 5 6 7 8 9 10 11 12 13 14 15
933
FTUS43 KIND 070520
TAFLAF
TAF
KLAF 070520Z 0706/0806 23004KT P6SM SKC
     FM070900 23004KT P6SM SCT150 BKN250
     FM071400 24010G20KT P6SM SCT120 BKN250
     FM072100 25010G20KT P6SM FEW040 BKN120
     FM080100 27008KT P6SM SCT040 BKN100
      AMD LTD TO CLD VIS AND WIND TIL 071400=

USA.gov is the U.S. government's official web portal to all federal, state and local government web resources and services.